Terminal Aerodrome Forecast
Issued by NWS

Current Version | Previous Version | Graphics & Text | Print | Product List | Glossary On
Versions: 1 2 3 4 5 6 7 8 9 10 11 12 13
000
FTUS41 KILN 120541
TAFLCK
TAF
KLCK 120541Z 1206/1306 26012KT P6SM BKN060
     FM120900 28016G24KT P6SM OVC015
     FM121400 30018G28KT P6SM OVC022
     FM121700 30018G28KT P6SM OVC035
     FM122100 29018G26KT 3SM -SHSN BKN025 OVC035
      TEMPO 1221/1224 1SM -SHSN
     FM130100 29014G22KT P6SM OVC035=

USA.gov is the U.S. government's official web portal to all federal, state and local government web resources and services.